sensor_id;sensor_type;location;lat;lon;timestamp;P1;durP1;ratioP1;P2;durP2;ratioP2
51148;SDS011;37210;50.058;8.688;2023-03-23T00:01:22;1.20;;;1.00;;
51148;SDS011;37210;50.058;8.688;2023-03-23T00:03:52;1.30;;;1.20;;
51148;SDS011;37210;50.058;8.688;2023-03-23T00:06:25;1.48;;;1.33;;
51148;SDS011;37210;50.058;8.688;2023-03-23T00:08:58;1.43;;;1.20;;
51148;SDS011;37210;50.058;8.688;2023-03-23T00:11:29;0.90;;;0.90;;
51148;SDS011;37210;50.058;8.688;2023-03-23T00:13:59;2.22;;;1.17;;
51148;SDS011;37210;50.058;8.688;2023-03-23T00:16:29;1.30;;;1.20;;
51148;SDS011;37210;50.058;8.688;2023-03-23T00:19:03;2.60;;;1.23;;
51148;SDS011;37210;50.058;8.688;2023-03-23T00:21:36;2.35;;;1.13;;
51148;SDS011;37210;50.058;8.688;2023-03-23T00:24:08;1.33;;;1.05;;
51148;SDS011;37210;50.058;8.688;2023-03-23T00:26:38;1.38;;;1.27;;
51148;SDS011;37210;50.058;8.688;2023-03-23T00:29:08;2.10;;;1.02;;
51148;SDS011;37210;50.058;8.688;2023-03-23T00:31:41;1.33;;;1.23;;
51148;SDS011;37210;50.058;8.688;2023-03-23T00:34:12;1.10;;;0.98;;
51148;SDS011;37210;50.058;8.688;2023-03-23T00:36:46;1.52;;;1.10;;
51148;SDS011;37210;50.058;8.688;2023-03-23T00:39:16;1.77;;;1.10;;
51148;SDS011;37210;50.058;8.688;2023-03-23T00:41:47;1.38;;;1.10;;
51148;SDS011;37210;50.058;8.688;2023-03-23T00:44:15;1.10;;;1.00;;
51148;SDS011;37210;50.058;8.688;2023-03-23T00:46:45;1.70;;;1.20;;
51148;SDS011;37210;50.058;8.688;2023-03-23T00:49:15;1.25;;;1.15;;
51148;SDS011;37210;50.058;8.688;2023-03-23T00:51:51;2.00;;;1.40;;
51148;SDS011;37210;50.058;8.688;2023-03-23T00:54:21;1.40;;;1.20;;
51148;SDS011;37210;50.058;8.688;2023-03-23T00:56:50;2.38;;;1.20;;
51148;SDS011;37210;50.058;8.688;2023-03-23T00:59:19;1.80;;;1.23;;
51148;SDS011;37210;50.058;8.688;2023-03-23T01:01:48;1.33;;;1.10;;
51148;SDS011;37210;50.058;8.688;2023-03-23T01:04:17;2.30;;;1.38;;
51148;SDS011;37210;50.058;8.688;2023-03-23T01:06:48;1.70;;;1.38;;
51148;SDS011;37210;50.058;8.688;2023-03-23T01:09:19;1.77;;;1.20;;
51148;SDS011;37210;50.058;8.688;2023-03-23T01:11:48;1.30;;;1.20;;
51148;SDS011;37210;50.058;8.688;2023-03-23T01:14:18;1.63;;;1.38;;
51148;SDS011;37210;50.058;8.688;2023-03-23T01:16:49;2.92;;;1.38;;
51148;SDS011;37210;50.058;8.688;2023-03-23T01:19:17;2.15;;;1.35;;
51148;SDS011;37210;50.058;8.688;2023-03-23T01:21:44;1.73;;;1.38;;
51148;SDS011;37210;50.058;8.688;2023-03-23T01:24:12;2.30;;;1.30;;
51148;SDS011;37210;50.058;8.688;2023-03-23T01:26:41;2.15;;;1.55;;
51148;SDS011;37210;50.058;8.688;2023-03-23T01:29:09;2.15;;;1.50;;
51148;SDS011;37210;50.058;8.688;2023-03-23T01:31:37;1.95;;;1.10;;
51148;SDS011;37210;50.058;8.688;2023-03-23T01:34:06;2.33;;;1.40;;
51148;SDS011;37210;50.058;8.688;2023-03-23T01:36:34;1.60;;;1.50;;
51148;SDS011;37210;50.058;8.688;2023-03-23T01:39:04;1.52;;;1.30;;
51148;SDS011;37210;50.058;8.688;2023-03-23T01:41:34;2.85;;;1.73;;
51148;SDS011;37210;50.058;8.688;2023-03-23T01:44:59;2.50;;;1.60;;
51148;SDS011;37210;50.058;8.688;2023-03-23T01:47:41;1.40;;;1.30;;
51148;SDS011;37210;50.058;8.688;2023-03-23T01:50:09;2.38;;;1.35;;
51148;SDS011;37210;50.058;8.688;2023-03-23T01:52:37;1.40;;;1.30;;
51148;SDS011;37210;50.058;8.688;2023-03-23T01:55:05;1.33;;;1.23;;
51148;SDS011;37210;50.058;8.688;2023-03-23T01:57:34;1.35;;;1.25;;
51148;SDS011;37210;50.058;8.688;2023-03-23T02:00:05;1.70;;;1.40;;
51148;SDS011;37210;50.058;8.688;2023-03-23T02:02:40;1.50;;;1.17;;
51148;SDS011;37210;50.058;8.688;2023-03-23T02:05:12;2.72;;;1.13;;
51148;SDS011;37210;50.058;8.688;2023-03-23T02:07:46;1.10;;;0.98;;
51148;SDS011;37210;50.058;8.688;2023-03-23T02:10:16;1.23;;;1.13;;
51148;SDS011;37210;50.058;8.688;2023-03-23T02:12:44;2.08;;;1.40;;
51148;SDS011;37210;50.058;8.688;2023-03-23T02:15:14;1.35;;;1.00;;
51148;SDS011;37210;50.058;8.688;2023-03-23T02:17:45;1.15;;;1.00;;
51148;SDS011;37210;50.058;8.688;2023-03-23T02:20:32;2.13;;;1.27;;
51148;SDS011;37210;50.058;8.688;2023-03-23T02:23:20;1.40;;;1.30;;
51148;SDS011;37210;50.058;8.688;2023-03-23T02:26:17;2.58;;;1.50;;
51148;SDS011;37210;50.058;8.688;2023-03-23T02:29:04;2.53;;;1.40;;
51148;SDS011;37210;50.058;8.688;2023-03-23T02:31:51;1.23;;;1.10;;
51148;SDS011;37210;50.058;8.688;2023-03-23T02:34:36;2.08;;;1.40;;
51148;SDS011;37210;50.058;8.688;2023-03-23T02:37:08;1.50;;;1.40;;
51148;SDS011;37210;50.058;8.688;2023-03-23T02:39:46;2.42;;;1.40;;
51148;SDS011;37210;50.058;8.688;2023-03-23T02:42:20;3.63;;;2.08;;
51148;SDS011;37210;50.058;8.688;2023-03-23T02:44:58;1.75;;;1.40;;
51148;SDS011;37210;50.058;8.688;2023-03-23T02:47:30;1.25;;;1.00;;
51148;SDS011;37210;50.058;8.688;2023-03-23T02:50:04;1.48;;;1.38;;
51148;SDS011;37210;50.058;8.688;2023-03-23T02:52:37;1.67;;;1.20;;
51148;SDS011;37210;50.058;8.688;2023-03-23T02:55:10;1.70;;;1.60;;
51148;SDS011;37210;50.058;8.688;2023-03-23T02:57:40;1.85;;;1.50;;
51148;SDS011;37210;50.058;8.688;2023-03-23T03:00:14;2.25;;;1.55;;
51148;SDS011;37210;50.058;8.688;2023-03-23T03:02:47;2.03;;;1.60;;
51148;SDS011;37210;50.058;8.688;2023-03-23T03:05:24;1.77;;;1.50;;
51148;SDS011;37210;50.058;8.688;2023-03-23T03:08:13;2.03;;;1.30;;
51148;SDS011;37210;50.058;8.688;2023-03-23T03:10:52;3.47;;;1.60;;
51148;SDS011;37210;50.058;8.688;2023-03-23T03:13:32;2.20;;;1.70;;
51148;SDS011;37210;50.058;8.688;2023-03-23T03:18:52;1.48;;;1.15;;
51148;SDS011;37210;50.058;8.688;2023-03-23T03:21:28;2.78;;;1.60;;
51148;SDS011;37210;50.058;8.688;2023-03-23T03:24:01;1.30;;;1.20;;
51148;SDS011;37210;50.058;8.688;2023-03-23T03:26:32;1.30;;;1.20;;
51148;SDS011;37210;50.058;8.688;2023-03-23T03:29:19;2.55;;;1.67;;
51148;SDS011;37210;50.058;8.688;2023-03-23T03:31:52;2.05;;;1.45;;
51148;SDS011;37210;50.058;8.688;2023-03-23T03:34:25;2.10;;;1.63;;
51148;SDS011;37210;50.058;8.688;2023-03-23T03:36:54;1.85;;;1.45;;
51148;SDS011;37210;50.058;8.688;2023-03-23T03:39:26;1.83;;;1.45;;
51148;SDS011;37210;50.058;8.688;2023-03-23T03:41:54;1.77;;;1.60;;
51148;SDS011;37210;50.058;8.688;2023-03-23T03:44:22;1.63;;;1.50;;
51148;SDS011;37210;50.058;8.688;2023-03-23T03:46:50;1.75;;;1.65;;
51148;SDS011;37210;50.058;8.688;2023-03-23T03:49:17;2.63;;;1.70;;
51148;SDS011;37210;50.058;8.688;2023-03-23T03:51:45;2.88;;;1.60;;
51148;SDS011;37210;50.058;8.688;2023-03-23T03:54:20;1.70;;;1.60;;
51148;SDS011;37210;50.058;8.688;2023-03-23T03:56:48;3.15;;;1.60;;
51148;SDS011;37210;50.058;8.688;2023-03-23T03:59:49;1.60;;;1.50;;
51148;SDS011;37210;50.058;8.688;2023-03-23T04:02:36;1.98;;;1.70;;
51148;SDS011;37210;50.058;8.688;2023-03-23T04:05:04;1.90;;;1.70;;
51148;SDS011;37210;50.058;8.688;2023-03-23T04:07:34;1.63;;;1.52;;
51148;SDS011;37210;50.058;8.688;2023-03-23T04:10:05;2.15;;;1.73;;
51148;SDS011;37210;50.058;8.688;2023-03-23T04:12:35;2.17;;;1.83;;
51148;SDS011;37210;50.058;8.688;2023-03-23T04:15:24;2.25;;;1.48;;
51148;SDS011;37210;50.058;8.688;2023-03-23T04:17:52;2.22;;;1.70;;
51148;SDS011;37210;50.058;8.688;2023-03-23T04:20:22;1.65;;;1.55;;
51148;SDS011;37210;50.058;8.688;2023-03-23T04:22:50;2.22;;;1.80;;
51148;SDS011;37210;50.058;8.688;2023-03-23T04:25:23;2.38;;;1.70;;
51148;SDS011;37210;50.058;8.688;2023-03-23T04:27:52;2.72;;;1.90;;
51148;SDS011;37210;50.058;8.688;2023-03-23T04:30:25;2.20;;;1.80;;
51148;SDS011;37210;50.058;8.688;2023-03-23T04:33:03;1.60;;;1.50;;
51148;SDS011;37210;50.058;8.688;2023-03-23T04:35:31;1.83;;;1.63;;
51148;SDS011;37210;50.058;8.688;2023-03-23T04:38:17;2.03;;;1.83;;
51148;SDS011;37210;50.058;8.688;2023-03-23T04:40:53;3.20;;;1.60;;
51148;SDS011;37210;50.058;8.688;2023-03-23T04:43:37;2.00;;;1.77;;
51148;SDS011;37210;50.058;8.688;2023-03-23T04:46:30;1.80;;;1.60;;
51148;SDS011;37210;50.058;8.688;2023-03-23T04:49:04;1.60;;;1.50;;
51148;SDS011;37210;50.058;8.688;2023-03-23T04:51:36;1.95;;;1.75;;
51148;SDS011;37210;50.058;8.688;2023-03-23T04:54:25;2.10;;;1.65;;
51148;SDS011;37210;50.058;8.688;2023-03-23T04:56:57;1.80;;;1.60;;
51148;SDS011;37210;50.058;8.688;2023-03-23T04:59:27;2.20;;;2.00;;
51148;SDS011;37210;50.058;8.688;2023-03-23T05:02:10;1.48;;;1.38;;
51148;SDS011;37210;50.058;8.688;2023-03-23T05:04:39;2.88;;;1.65;;
51148;SDS011;37210;50.058;8.688;2023-03-23T05:07:12;1.58;;;1.48;;
51148;SDS011;37210;50.058;8.688;2023-03-23T05:09:46;2.28;;;1.90;;
51148;SDS011;37210;50.058;8.688;2023-03-23T05:12:18;2.17;;;1.83;;
51148;SDS011;37210;50.058;8.688;2023-03-23T05:15:07;1.90;;;1.80;;
51148;SDS011;37210;50.058;8.688;2023-03-23T05:17:36;2.00;;;1.65;;
51148;SDS011;37210;50.058;8.688;2023-03-23T05:20:13;1.75;;;1.65;;
51148;SDS011;37210;50.058;8.688;2023-03-23T05:22:47;1.83;;;1.52;;
51148;SDS011;37210;50.058;8.688;2023-03-23T05:25:21;1.92;;;1.60;;
51148;SDS011;37210;50.058;8.688;2023-03-23T05:28:12;2.10;;;1.30;;
51148;SDS011;37210;50.058;8.688;2023-03-23T05:31:00;4.15;;;1.48;;
51148;SDS011;37210;50.058;8.688;2023-03-23T05:33:31;1.80;;;1.60;;
51148;SDS011;37210;50.058;8.688;2023-03-23T05:36:15;2.20;;;1.77;;
51148;SDS011;37210;50.058;8.688;2023-03-23T05:39:08;1.40;;;1.30;;
51148;SDS011;37210;50.058;8.688;2023-03-23T05:41:55;3.30;;;1.55;;
51148;SDS011;37210;50.058;8.688;2023-03-23T05:44:28;1.65;;;1.20;;
51148;SDS011;37210;50.058;8.688;2023-03-23T05:46:58;1.80;;;1.60;;
51148;SDS011;37210;50.058;8.688;2023-03-23T05:49:26;1.52;;;1.42;;
51148;SDS011;37210;50.058;8.688;2023-03-23T05:51:54;1.95;;;1.73;;
51148;SDS011;37210;50.058;8.688;2023-03-23T05:54:22;1.65;;;1.55;;
51148;SDS011;37210;50.058;8.688;2023-03-23T05:56:52;2.00;;;1.70;;
51148;SDS011;37210;50.058;8.688;2023-03-23T05:59:36;2.13;;;1.83;;
51148;SDS011;37210;50.058;8.688;2023-03-23T06:02:06;2.60;;;1.83;;
51148;SDS011;37210;50.058;8.688;2023-03-23T06:04:34;1.85;;;1.60;;
51148;SDS011;37210;50.058;8.688;2023-03-23T06:07:12;2.28;;;1.73;;
51148;SDS011;37210;50.058;8.688;2023-03-23T06:09:46;2.25;;;1.77;;
51148;SDS011;37210;50.058;8.688;2023-03-23T06:12:13;2.10;;;1.63;;
51148;SDS011;37210;50.058;8.688;2023-03-23T06:15:03;2.00;;;1.80;;
51148;SDS011;37210;50.058;8.688;2023-03-23T06:18:10;2.58;;;1.95;;
51148;SDS011;37210;50.058;8.688;2023-03-23T06:23:38;1.77;;;1.50;;
51148;SDS011;37210;50.058;8.688;2023-03-23T06:26:07;2.00;;;1.80;;
51148;SDS011;37210;50.058;8.688;2023-03-23T06:28:38;2.72;;;1.75;;
51148;SDS011;37210;50.058;8.688;2023-03-23T06:31:08;1.75;;;1.60;;
51148;SDS011;37210;50.058;8.688;2023-03-23T06:33:38;1.80;;;1.70;;
51148;SDS011;37210;50.058;8.688;2023-03-23T06:36:24;2.38;;;1.67;;
51148;SDS011;37210;50.058;8.688;2023-03-23T06:39:21;1.60;;;1.50;;
51148;SDS011;37210;50.058;8.688;2023-03-23T06:42:04;2.17;;;1.52;;
51148;SDS011;37210;50.058;8.688;2023-03-23T06:44:43;2.25;;;1.70;;
51148;SDS011;37210;50.058;8.688;2023-03-23T06:47:13;2.15;;;1.70;;
51148;SDS011;37210;50.058;8.688;2023-03-23T06:49:46;4.78;;;4.30;;
51148;SDS011;37210;50.058;8.688;2023-03-23T06:52:20;3.03;;;2.38;;
51148;SDS011;37210;50.058;8.688;2023-03-23T06:54:50;3.67;;;3.15;;
51148;SDS011;37210;50.058;8.688;2023-03-23T06:57:19;1.98;;;1.77;;
51148;SDS011;37210;50.058;8.688;2023-03-23T06:59:49;6.38;;;4.72;;
51148;SDS011;37210;50.058;8.688;2023-03-23T07:02:18;2.35;;;1.73;;
51148;SDS011;37210;50.058;8.688;2023-03-23T07:04:49;2.08;;;1.85;;
51148;SDS011;37210;50.058;8.688;2023-03-23T07:07:22;2.50;;;2.00;;
51148;SDS011;37210;50.058;8.688;2023-03-23T07:09:56;3.53;;;1.80;;
51148;SDS011;37210;50.058;8.688;2023-03-23T07:12:24;1.90;;;1.55;;
51148;SDS011;37210;50.058;8.688;2023-03-23T07:14:53;2.22;;;2.03;;
51148;SDS011;37210;50.058;8.688;2023-03-23T07:17:22;3.58;;;2.28;;
51148;SDS011;37210;50.058;8.688;2023-03-23T07:20:02;1.88;;;1.77;;
51148;SDS011;37210;50.058;8.688;2023-03-23T07:22:31;2.33;;;1.70;;
51148;SDS011;37210;50.058;8.688;2023-03-23T07:25:07;1.98;;;1.88;;
51148;SDS011;37210;50.058;8.688;2023-03-23T07:27:49;1.83;;;1.67;;
51148;SDS011;37210;50.058;8.688;2023-03-23T07:30:17;2.92;;;1.70;;
51148;SDS011;37210;50.058;8.688;2023-03-23T07:32:47;2.50;;;2.08;;
51148;SDS011;37210;50.058;8.688;2023-03-23T07:35:15;2.40;;;2.20;;
51148;SDS011;37210;50.058;8.688;2023-03-23T07:37:54;3.35;;;3.05;;
51148;SDS011;37210;50.058;8.688;2023-03-23T07:40:22;3.05;;;2.50;;
51148;SDS011;37210;50.058;8.688;2023-03-23T07:42:53;1.98;;;1.77;;
51148;SDS011;37210;50.058;8.688;2023-03-23T07:45:34;1.95;;;1.80;;
51148;SDS011;37210;50.058;8.688;2023-03-23T07:48:03;1.77;;;1.67;;
51148;SDS011;37210;50.058;8.688;2023-03-23T07:50:31;2.33;;;1.73;;
51148;SDS011;37210;50.058;8.688;2023-03-23T07:53:01;1.95;;;1.75;;
51148;SDS011;37210;50.058;8.688;2023-03-23T07:55:31;1.65;;;1.55;;
51148;SDS011;37210;50.058;8.688;2023-03-23T07:58:11;2.25;;;2.05;;
51148;SDS011;37210;50.058;8.688;2023-03-23T08:00:44;2.60;;;2.40;;
51148;SDS011;37210;50.058;8.688;2023-03-23T08:03:15;1.70;;;1.55;;
51148;SDS011;37210;50.058;8.688;2023-03-23T08:05:56;2.38;;;2.17;;
51148;SDS011;37210;50.058;8.688;2023-03-23T08:08:43;2.20;;;1.83;;
51148;SDS011;37210;50.058;8.688;2023-03-23T08:11:30;1.85;;;1.50;;
51148;SDS011;37210;50.058;8.688;2023-03-23T08:14:16;1.77;;;1.52;;
51148;SDS011;37210;50.058;8.688;2023-03-23T08:17:04;1.55;;;1.25;;
51148;SDS011;37210;50.058;8.688;2023-03-23T08:19:49;1.88;;;1.60;;
51148;SDS011;37210;50.058;8.688;2023-03-23T08:22:51;1.92;;;1.70;;
51148;SDS011;37210;50.058;8.688;2023-03-23T08:25:36;2.63;;;1.88;;
51148;SDS011;37210;50.058;8.688;2023-03-23T08:31:16;2.20;;;1.65;;
51148;SDS011;37210;50.058;8.688;2023-03-23T08:34:04;2.47;;;1.63;;
51148;SDS011;37210;50.058;8.688;2023-03-23T08:36:37;2.25;;;2.05;;
51148;SDS011;37210;50.058;8.688;2023-03-23T08:39:21;3.10;;;1.90;;
51148;SDS011;37210;50.058;8.688;2023-03-23T08:42:13;1.80;;;1.63;;
51148;SDS011;37210;50.058;8.688;2023-03-23T08:45:02;2.50;;;1.60;;
51148;SDS011;37210;50.058;8.688;2023-03-23T08:47:49;2.25;;;1.73;;
51148;SDS011;37210;50.058;8.688;2023-03-23T08:50:43;2.83;;;1.73;;
51148;SDS011;37210;50.058;8.688;2023-03-23T08:53:29;2.03;;;1.65;;
51148;SDS011;37210;50.058;8.688;2023-03-23T08:56:16;3.00;;;1.70;;
51148;SDS011;37210;50.058;8.688;2023-03-23T08:59:04;1.83;;;1.27;;
51148;SDS011;37210;50.058;8.688;2023-03-23T09:04:29;3.42;;;1.80;;
51148;SDS011;37210;50.058;8.688;2023-03-23T09:07:15;1.80;;;1.70;;
51148;SDS011;37210;50.058;8.688;2023-03-23T09:09:44;3.38;;;1.77;;
51148;SDS011;37210;50.058;8.688;2023-03-23T09:12:12;2.30;;;2.00;;
51148;SDS011;37210;50.058;8.688;2023-03-23T09:14:40;2.03;;;1.70;;
51148;SDS011;37210;50.058;8.688;2023-03-23T09:17:07;1.80;;;1.70;;
51148;SDS011;37210;50.058;8.688;2023-03-23T09:19:35;1.58;;;1.40;;
51148;SDS011;37210;50.058;8.688;2023-03-23T09:22:02;1.67;;;1.42;;
51148;SDS011;37210;50.058;8.688;2023-03-23T09:24:30;1.50;;;1.40;;
51148;SDS011;37210;50.058;8.688;2023-03-23T09:26:59;2.67;;;1.42;;
51148;SDS011;37210;50.058;8.688;2023-03-23T09:29:27;1.50;;;1.40;;
51148;SDS011;37210;50.058;8.688;2023-03-23T09:31:55;1.60;;;1.50;;
51148;SDS011;37210;50.058;8.688;2023-03-23T09:34:23;2.15;;;1.35;;
51148;SDS011;37210;50.058;8.688;2023-03-23T09:36:50;2.42;;;1.55;;
51148;SDS011;37210;50.058;8.688;2023-03-23T09:39:18;1.55;;;1.45;;
51148;SDS011;37210;50.058;8.688;2023-03-23T09:41:57;1.40;;;1.23;;
51148;SDS011;37210;50.058;8.688;2023-03-23T09:44:45;2.88;;;1.50;;
51148;SDS011;37210;50.058;8.688;2023-03-23T09:47:34;1.70;;;1.38;;
51148;SDS011;37210;50.058;8.688;2023-03-23T09:50:12;1.55;;;1.45;;
51148;SDS011;37210;50.058;8.688;2023-03-23T09:52:44;1.60;;;1.33;;
51148;SDS011;37210;50.058;8.688;2023-03-23T09:55:18;1.70;;;1.52;;
51148;SDS011;37210;50.058;8.688;2023-03-23T09:57:52;2.72;;;1.38;;
51148;SDS011;37210;50.058;8.688;2023-03-23T10:00:29;1.38;;;1.10;;
51148;SDS011;37210;50.058;8.688;2023-03-23T10:03:05;2.03;;;1.83;;
51148;SDS011;37210;50.058;8.688;2023-03-23T10:05:41;1.67;;;1.40;;
51148;SDS011;37210;50.058;8.688;2023-03-23T10:08:14;1.30;;;1.20;;
51148;SDS011;37210;50.058;8.688;2023-03-23T10:10:46;1.40;;;1.30;;
51148;SDS011;37210;50.058;8.688;2023-03-23T10:13:30;1.20;;;1.10;;
51148;SDS011;37210;50.058;8.688;2023-03-23T10:16:20;1.60;;;1.10;;
51148;SDS011;37210;50.058;8.688;2023-03-23T10:18:56;1.83;;;1.20;;
51148;SDS011;37210;50.058;8.688;2023-03-23T10:21:31;2.60;;;1.67;;
51148;SDS011;37210;50.058;8.688;2023-03-23T10:24:07;2.78;;;1.20;;
51148;SDS011;37210;50.058;8.688;2023-03-23T10:26:40;1.60;;;1.45;;
51148;SDS011;37210;50.058;8.688;2023-03-23T10:29:24;1.77;;;1.30;;
51148;SDS011;37210;50.058;8.688;2023-03-23T10:31:58;1.60;;;1.30;;
51148;SDS011;37210;50.058;8.688;2023-03-23T10:34:40;1.58;;;1.45;;
51148;SDS011;37210;50.058;8.688;2023-03-23T10:37:14;1.80;;;1.65;;
51148;SDS011;37210;50.058;8.688;2023-03-23T10:39:48;2.55;;;1.30;;
51148;SDS011;37210;50.058;8.688;2023-03-23T10:42:21;2.58;;;1.25;;
51148;SDS011;37210;50.058;8.688;2023-03-23T10:44:53;1.23;;;1.13;;
51148;SDS011;37210;50.058;8.688;2023-03-23T10:47:23;1.80;;;1.52;;
51148;SDS011;37210;50.058;8.688;2023-03-23T10:49:51;1.83;;;1.42;;
51148;SDS011;37210;50.058;8.688;2023-03-23T10:52:25;2.33;;;1.33;;
51148;SDS011;37210;50.058;8.688;2023-03-23T10:55:02;1.75;;;1.45;;
51148;SDS011;37210;50.058;8.688;2023-03-23T10:57:36;1.50;;;1.40;;
51148;SDS011;37210;50.058;8.688;2023-03-23T11:00:16;1.30;;;1.20;;
51148;SDS011;37210;50.058;8.688;2023-03-23T11:02:48;3.22;;;1.40;;
51148;SDS011;37210;50.058;8.688;2023-03-23T11:05:31;1.45;;;1.20;;
51148;SDS011;37210;50.058;8.688;2023-03-23T11:08:03;1.52;;;1.42;;
51148;SDS011;37210;50.058;8.688;2023-03-23T11:10:39;3.08;;;1.35;;
51148;SDS011;37210;50.058;8.688;2023-03-23T11:13:15;1.48;;;1.17;;
51148;SDS011;37210;50.058;8.688;2023-03-23T11:15:46;1.60;;;1.00;;
51148;SDS011;37210;50.058;8.688;2023-03-23T11:18:18;1.25;;;1.15;;
51148;SDS011;37210;50.058;8.688;2023-03-23T11:20:51;1.33;;;1.20;;
51148;SDS011;37210;50.058;8.688;2023-03-23T11:23:23;1.13;;;1.02;;
51148;SDS011;37210;50.058;8.688;2023-03-23T11:25:55;1.75;;;1.20;;
51148;SDS011;37210;50.058;8.688;2023-03-23T11:28:28;1.50;;;1.20;;
51148;SDS011;37210;50.058;8.688;2023-03-23T11:31:03;1.25;;;1.15;;
51148;SDS011;37210;50.058;8.688;2023-03-23T11:33:37;2.08;;;1.17;;
51148;SDS011;37210;50.058;8.688;2023-03-23T11:36:20;2.17;;;1.10;;
51148;SDS011;37210;50.058;8.688;2023-03-23T11:38:55;1.23;;;0.98;;
51148;SDS011;37210;50.058;8.688;2023-03-23T11:41:23;1.50;;;1.00;;
51148;SDS011;37210;50.058;8.688;2023-03-23T11:43:55;1.98;;;1.05;;
51148;SDS011;37210;50.058;8.688;2023-03-23T11:46:29;1.25;;;0.98;;
51148;SDS011;37210;50.058;8.688;2023-03-23T11:49:07;1.52;;;1.20;;
51148;SDS011;37210;50.058;8.688;2023-03-23T11:51:46;1.70;;;1.20;;
51148;SDS011;37210;50.058;8.688;2023-03-23T11:54:21;1.13;;;1.00;;
51148;SDS011;37210;50.058;8.688;2023-03-23T11:56:56;1.25;;;1.10;;
51148;SDS011;37210;50.058;8.688;2023-03-23T11:59:28;1.58;;;1.15;;
51148;SDS011;37210;50.058;8.688;2023-03-23T12:02:04;1.42;;;1.33;;
51148;SDS011;37210;50.058;8.688;2023-03-23T12:05:19;1.25;;;1.10;;
51148;SDS011;37210;50.058;8.688;2023-03-23T12:08:03;1.23;;;1.13;;
51148;SDS011;37210;50.058;8.688;2023-03-23T12:10:46;1.25;;;1.00;;
51148;SDS011;37210;50.058;8.688;2023-03-23T12:13:28;1.98;;;1.30;;
51148;SDS011;37210;50.058;8.688;2023-03-23T12:16:20;1.48;;;1.20;;
51148;SDS011;37210;50.058;8.688;2023-03-23T12:19:03;1.75;;;1.20;;
51148;SDS011;37210;50.058;8.688;2023-03-23T12:21:47;1.10;;;1.00;;
51148;SDS011;37210;50.058;8.688;2023-03-23T12:24:27;1.10;;;1.00;;
51148;SDS011;37210;50.058;8.688;2023-03-23T12:27:15;0.93;;;0.90;;
51148;SDS011;37210;50.058;8.688;2023-03-23T12:29:58;1.73;;;1.00;;
51148;SDS011;37210;50.058;8.688;2023-03-23T12:32:53;0.90;;;0.90;;
51148;SDS011;37210;50.058;8.688;2023-03-23T12:35:43;1.25;;;1.13;;
51148;SDS011;37210;50.058;8.688;2023-03-23T12:38:39;1.00;;;0.77;;
51148;SDS011;37210;50.058;8.688;2023-03-23T12:41:27;0.85;;;0.85;;
51148;SDS011;37210;50.058;8.688;2023-03-23T12:44:03;1.52;;;0.80;;
51148;SDS011;37210;50.058;8.688;2023-03-23T12:49:38;1.50;;;1.10;;
51148;SDS011;37210;50.058;8.688;2023-03-23T12:52:16;0.77;;;0.77;;
51148;SDS011;37210;50.058;8.688;2023-03-23T12:54:50;1.02;;;0.93;;
51148;SDS011;37210;50.058;8.688;2023-03-23T12:57:27;1.35;;;1.00;;
51148;SDS011;37210;50.058;8.688;2023-03-23T13:00:03;2.08;;;0.90;;
51148;SDS011;37210;50.058;8.688;2023-03-23T13:02:42;1.33;;;0.90;;
51148;SDS011;37210;50.058;8.688;2023-03-23T13:05:27;1.23;;;0.90;;
51148;SDS011;37210;50.058;8.688;2023-03-23T13:08:11;0.90;;;0.73;;
51148;SDS011;37210;50.058;8.688;2023-03-23T13:10:46;2.08;;;1.00;;
51148;SDS011;37210;50.058;8.688;2023-03-23T13:13:17;1.88;;;1.05;;
51148;SDS011;37210;50.058;8.688;2023-03-23T13:15:51;0.85;;;0.80;;
51148;SDS011;37210;50.058;8.688;2023-03-23T13:18:37;2.85;;;1.13;;
51148;SDS011;37210;50.058;8.688;2023-03-23T13:21:16;0.98;;;0.80;;
51148;SDS011;37210;50.058;8.688;2023-03-23T13:23:54;1.02;;;0.80;;
51148;SDS011;37210;50.058;8.688;2023-03-23T13:26:27;1.23;;;1.00;;
51148;SDS011;37210;50.058;8.688;2023-03-23T13:28:56;1.15;;;1.05;;
51148;SDS011;37210;50.058;8.688;2023-03-23T13:31:27;1.27;;;0.93;;
51148;SDS011;37210;50.058;8.688;2023-03-23T13:34:02;1.23;;;0.70;;
51148;SDS011;37210;50.058;8.688;2023-03-23T13:36:34;1.30;;;1.10;;
51148;SDS011;37210;50.058;8.688;2023-03-23T13:39:15;0.88;;;0.88;;
51148;SDS011;37210;50.058;8.688;2023-03-23T13:41:47;0.70;;;0.70;;
51148;SDS011;37210;50.058;8.688;2023-03-23T13:44:25;0.88;;;0.85;;
51148;SDS011;37210;50.058;8.688;2023-03-23T13:47:07;0.80;;;0.80;;
51148;SDS011;37210;50.058;8.688;2023-03-23T13:49:49;1.08;;;0.75;;
51148;SDS011;37210;50.058;8.688;2023-03-23T13:52:24;0.93;;;0.90;;
51148;SDS011;37210;50.058;8.688;2023-03-23T13:55:29;1.00;;;0.90;;
51148;SDS011;37210;50.058;8.688;2023-03-23T13:58:11;1.25;;;0.80;;
51148;SDS011;37210;50.058;8.688;2023-03-23T14:01:01;0.82;;;0.80;;
51148;SDS011;37210;50.058;8.688;2023-03-23T14:03:42;1.42;;;0.88;;
51148;SDS011;37210;50.058;8.688;2023-03-23T14:06:16;1.40;;;0.90;;
51148;SDS011;37210;50.058;8.688;2023-03-23T14:09:21;0.80;;;0.80;;
51148;SDS011;37210;50.058;8.688;2023-03-23T14:11:56;0.85;;;0.80;;
51148;SDS011;37210;50.058;8.688;2023-03-23T14:14:32;1.10;;;0.98;;
51148;SDS011;37210;50.058;8.688;2023-03-23T14:17:08;0.80;;;0.80;;
51148;SDS011;37210;50.058;8.688;2023-03-23T14:19:41;1.38;;;1.20;;
51148;SDS011;37210;50.058;8.688;2023-03-23T14:22:17;1.27;;;1.10;;
51148;SDS011;37210;50.058;8.688;2023-03-23T14:24:49;1.00;;;0.90;;
51148;SDS011;37210;50.058;8.688;2023-03-23T14:27:19;1.45;;;0.90;;
51148;SDS011;37210;50.058;8.688;2023-03-23T14:29:57;1.35;;;1.05;;
51148;SDS011;37210;50.058;8.688;2023-03-23T14:32:25;0.80;;;0.80;;
51148;SDS011;37210;50.058;8.688;2023-03-23T14:34:58;1.00;;;0.88;;
51148;SDS011;37210;50.058;8.688;2023-03-23T14:37:27;1.42;;;0.90;;
51148;SDS011;37210;50.058;8.688;2023-03-23T14:39:56;0.90;;;0.90;;
51148;SDS011;37210;50.058;8.688;2023-03-23T14:42:28;1.20;;;1.10;;
51148;SDS011;37210;50.058;8.688;2023-03-23T14:44:58;2.35;;;0.98;;
51148;SDS011;37210;50.058;8.688;2023-03-23T14:47:29;1.67;;;1.30;;
51148;SDS011;37210;50.058;8.688;2023-03-23T14:50:02;2.47;;;1.13;;
51148;SDS011;37210;50.058;8.688;2023-03-23T14:52:33;2.40;;;0.93;;
51148;SDS011;37210;50.058;8.688;2023-03-23T14:55:10;1.30;;;0.70;;
51148;SDS011;37210;50.058;8.688;2023-03-23T14:57:42;1.20;;;1.10;;
51148;SDS011;37210;50.058;8.688;2023-03-23T15:00:12;1.17;;;1.08;;
51148;SDS011;37210;50.058;8.688;2023-03-23T15:02:42;1.13;;;1.00;;
51148;SDS011;37210;50.058;8.688;2023-03-23T15:05:14;1.35;;;0.82;;
51148;SDS011;37210;50.058;8.688;2023-03-23T15:07:46;1.17;;;0.82;;
51148;SDS011;37210;50.058;8.688;2023-03-23T15:10:20;0.73;;;0.73;;
51148;SDS011;37210;50.058;8.688;2023-03-23T15:12:51;1.52;;;0.90;;
51148;SDS011;37210;50.058;8.688;2023-03-23T15:15:24;1.92;;;1.10;;
51148;SDS011;37210;50.058;8.688;2023-03-23T15:17:55;1.25;;;0.90;;
51148;SDS011;37210;50.058;8.688;2023-03-23T15:20:25;1.55;;;0.82;;
51148;SDS011;37210;50.058;8.688;2023-03-23T15:22:55;2.42;;;0.90;;
51148;SDS011;37210;50.058;8.688;2023-03-23T15:25:33;1.08;;;1.00;;
51148;SDS011;37210;50.058;8.688;2023-03-23T15:28:14;2.20;;;1.02;;
51148;SDS011;37210;50.058;8.688;2023-03-23T15:30:48;1.98;;;0.80;;
51148;SDS011;37210;50.058;8.688;2023-03-23T15:33:18;1.50;;;1.30;;
51148;SDS011;37210;50.058;8.688;2023-03-23T15:35:52;1.00;;;0.93;;
51148;SDS011;37210;50.058;8.688;2023-03-23T15:38:23;2.92;;;0.98;;
51148;SDS011;37210;50.058;8.688;2023-03-23T15:40:53;1.23;;;0.80;;
51148;SDS011;37210;50.058;8.688;2023-03-23T15:43:25;1.70;;;1.08;;
51148;SDS011;37210;50.058;8.688;2023-03-23T15:45:55;1.38;;;0.95;;
51148;SDS011;37210;50.058;8.688;2023-03-23T15:48:30;1.67;;;1.10;;
51148;SDS011;37210;50.058;8.688;2023-03-23T15:51:01;1.98;;;1.30;;
51148;SDS011;37210;50.058;8.688;2023-03-23T15:53:31;1.20;;;1.00;;